Time;durP1;ratioP1;P1;durP2;ratioP2;P2;SDS_P1;SDS_P2;PMS_P1;PMS_P2;Temp;Humidity;BMP_temperature;BMP_pressure;BME280_temperature;BME280_humidity;BME280_pressure;Samples;Min_cycle;Max_cycle;Signal;HPM_P1;HPM_P2
2021/05/03 00:01:16;;;;;;;2.15;1.40;;;2.60;81.70;;;;;;4937071;28;20047;-87
2021/05/03 00:03:48;;;;;;;1.15;0.75;;;2.60;82.00;;;;;;4952459;28;20055;-85
2021/05/03 00:06:16;;;;;;;2.00;1.00;;;2.60;81.40;;;;;;4926466;29;20061;-86
2021/05/03 00:08:43;;;;;;;2.28;1.20;;;2.60;81.80;;;;;;4954504;29;20055;-83
2021/05/03 00:11:13;;;;;;;3.22;1.10;;;2.60;82.10;;;;;;4938245;28;20049;-84
2021/05/03 00:13:41;;;;;;;2.55;0.88;;;2.60;81.70;;;;;;4955884;29;20394;-85
2021/05/03 00:16:10;;;;;;;2.55;1.20;;;2.60;82.00;;;;;;4948419;28;20379;-83
2021/05/03 00:18:49;;;;;;;2.10;1.13;;;2.50;82.10;;;;;;4941719;29;20043;-85
2021/05/03 00:21:17;;;;;;;1.90;1.05;;;2.50;82.20;;;;;;4942539;28;20234;-85
2021/05/03 00:23:45;;;;;;;2.15;1.10;;;2.40;82.50;;;;;;4928052;29;20055;-86
2021/05/03 00:26:12;;;;;;;1.77;1.00;;;2.40;82.20;;;;;;4951418;28;20234;-84
2021/05/03 00:28:40;;;;;;;2.97;1.35;;;2.40;82.60;;;;;;4944807;29;20059;-85
2021/05/03 00:31:07;;;;;;;2.63;0.95;;;2.40;82.40;;;;;;4939820;28;20044;-85
2021/05/03 00:33:42;;;;;;;1.30;0.80;;;2.30;82.50;;;;;;4946414;28;20048;-86
2021/05/03 00:36:15;;;;;;;4.72;1.73;;;2.30;82.90;;;;;;4948738;28;20062;-85
2021/05/03 00:38:44;;;;;;;1.58;0.63;;;2.20;83.00;;;;;;4949330;29;20094;-85
2021/05/03 00:41:22;;;;;;;2.22;0.82;;;2.20;82.80;;;;;;4943955;28;20055;-87
2021/05/03 00:43:54;;;;;;;1.33;0.65;;;2.20;82.50;;;;;;4938318;29;20055;-86
2021/05/03 00:46:28;;;;;;;2.25;0.80;;;2.20;82.90;;;;;;4948152;28;20157;-86
2021/05/03 00:48:59;;;;;;;3.58;0.77;;;2.20;83.10;;;;;;4948353;28;20059;-88
2021/05/03 00:51:27;;;;;;;1.75;0.80;;;2.10;82.90;;;;;;4951959;28;20719;-86
2021/05/03 00:53:54;;;;;;;0.60;0.60;;;2.20;82.90;;;;;;4953238;28;20288;-84
2021/05/03 00:56:21;;;;;;;3.60;1.05;;;2.10;83.00;;;;;;4925570;28;20074;-85
2021/05/03 00:58:48;;;;;;;2.05;1.15;;;2.10;83.20;;;;;;4922723;29;20106;-86
2021/05/03 01:01:20;;;;;;;3.08;1.15;;;2.10;83.30;;;;;;4946302;28;20051;-86
2021/05/03 01:03:47;;;;;;;1.80;0.90;;;2.00;83.40;;;;;;4948589;28;20369;-87
2021/05/03 01:06:18;;;;;;;2.35;0.82;;;1.90;83.60;;;;;;4935802;28;20060;-85
2021/05/03 01:08:45;;;;;;;1.98;0.80;;;1.80;83.80;;;;;;4938101;29;20067;-87
2021/05/03 01:11:14;;;;;;;1.27;0.75;;;1.90;84.20;;;;;;4947092;28;20055;-88
2021/05/03 01:13:41;;;;;;;1.27;0.85;;;1.90;84.00;;;;;;4937570;29;20067;-87
2021/05/03 01:16:13;;;;;;;2.40;0.98;;;1.90;83.90;;;;;;4947061;28;23191;-85
2021/05/03 01:18:52;;;;;;;2.75;1.10;;;1.80;84.00;;;;;;4946448;28;20235;-88
2021/05/03 01:21:24;;;;;;;2.58;1.30;;;1.80;84.20;;;;;;4947820;28;20063;-87
2021/05/03 01:23:55;;;;;;;1.45;0.90;;;1.80;84.20;;;;;;4951325;28;20050;-86
2021/05/03 01:26:22;;;;;;;0.95;0.65;;;1.80;83.80;;;;;;4957411;28;20051;-84
2021/05/03 01:28:50;;;;;;;1.88;0.80;;;1.80;84.30;;;;;;4958027;28;20047;-88
2021/05/03 01:31:17;;;;;;;3.50;1.20;;;1.80;84.50;;;;;;4932174;28;20120;-87
2021/05/03 01:33:47;;;;;;;1.80;1.02;;;1.90;84.40;;;;;;4958389;28;20251;-86
2021/05/03 01:36:19;;;;;;;2.50;1.05;;;1.80;84.10;;;;;;4947343;28;20066;-83
2021/05/03 01:38:55;;;;;;;2.63;1.50;;;1.70;84.40;;;;;;4952781;28;20047;-84
2021/05/03 01:41:26;;;;;;;4.38;1.50;;;1.60;84.70;;;;;;4927743;28;20053;-83
2021/05/03 01:43:53;;;;;;;4.38;1.45;;;1.50;84.90;;;;;;4943241;29;20048;-85
2021/05/03 01:46:21;;;;;;;4.07;1.65;;;1.50;85.10;;;;;;4954523;28;20226;-85
2021/05/03 01:48:48;;;;;;;2.38;1.35;;;1.60;85.10;;;;;;4948517;28;20048;-86
2021/05/03 01:51:15;;;;;;;2.53;1.55;;;1.60;84.90;;;;;;4945867;28;20398;-84
2021/05/03 01:53:48;;;;;;;4.68;1.58;;;1.50;85.40;;;;;;4938778;28;20055;-87
2021/05/03 01:56:25;;;;;;;2.17;1.15;;;1.50;85.30;;;;;;4952908;28;20120;-86
2021/05/03 01:58:55;;;;;;;1.80;1.00;;;1.50;85.20;;;;;;4949052;28;20054;-84
2021/05/03 02:01:31;;;;;;;1.50;0.75;;;1.40;85.00;;;;;;4939187;28;20070;-85
2021/05/03 02:04:07;;;;;;;3.88;0.98;;;1.40;85.10;;;;;;4954466;28;20356;-87
2021/05/03 02:06:40;;;;;;;2.25;1.20;;;1.30;85.20;;;;;;4949808;28;21535;-85
2021/05/03 02:09:18;;;;;;;2.42;1.25;;;1.40;84.90;;;;;;4954197;28;20047;-86
2021/05/03 02:11:49;;;;;;;2.72;1.13;;;1.50;84.50;;;;;;4959295;28;20075;-85
2021/05/03 02:14:30;;;;;;;5.57;1.33;;;1.50;84.70;;;;;;4956220;28;20055;-86
2021/05/03 02:16:57;;;;;;;2.58;1.38;;;1.40;85.10;;;;;;4941686;29;20063;-85
2021/05/03 02:19:32;;;;;;;2.53;1.40;;;1.40;84.80;;;;;;4954929;28;20039;-84
2021/05/03 02:22:09;;;;;;;5.78;2.03;;;1.40;84.60;;;;;;4948048;28;20061;-84
2021/05/03 02:24:39;;;;;;;3.85;1.10;;;1.40;85.20;;;;;;4930696;29;21218;-85
2021/05/03 02:27:14;;;;;;;2.17;1.17;;;1.40;85.30;;;;;;4959320;28;20051;-84
2021/05/03 02:29:51;;;;;;;2.83;1.30;;;1.40;84.90;;;;;;4955861;28;20290;-85
2021/05/03 02:32:26;;;;;;;5.38;1.92;;;1.40;85.20;;;;;;4945721;28;20062;-85
2021/05/03 02:34:56;;;;;;;2.33;1.45;;;1.50;85.30;;;;;;4961019;28;20051;-85
2021/05/03 02:37:29;;;;;;;3.97;1.63;;;1.60;84.90;;;;;;4948904;28;20221;-87
2021/05/03 02:40:06;;;;;;;3.85;1.35;;;1.80;84.30;;;;;;4945959;28;20063;-86
2021/05/03 02:42:36;;;;;;;3.50;1.35;;;1.80;84.20;;;;;;4949676;28;20398;-85
2021/05/03 02:45:17;;;;;;;5.50;1.48;;;1.70;84.50;;;;;;4937027;28;20343;-85
2021/05/03 02:47:47;;;;;;;2.80;1.27;;;1.60;84.60;;;;;;4954264;28;20066;-85
2021/05/03 02:50:18;;;;;;;5.25;1.27;;;1.50;85.20;;;;;;4968286;28;20056;-85
2021/05/03 02:52:53;;;;;;;4.78;1.27;;;1.50;85.10;;;;;;4945471;28;20075;-85
2021/05/03 02:55:28;;;;;;;3.00;2.17;;;1.40;85.50;;;;;;4944709;28;20049;-87
2021/05/03 02:58:09;;;;;;;2.90;1.58;;;1.40;85.40;;;;;;4945199;28;20046;-88
2021/05/03 03:00:43;;;;;;;3.28;1.17;;;1.40;85.70;;;;;;4945185;28;20055;-85
2021/05/03 03:03:13;;;;;;;4.32;1.65;;;1.40;85.60;;;;;;4937180;28;20054;-87
2021/05/03 03:05:47;;;;;;;3.72;1.45;;;1.40;85.80;;;;;;4938545;28;20047;-85
2021/05/03 03:08:23;;;;;;;3.15;1.48;;;1.30;85.60;;;;;;4945482;28;20105;-88
2021/05/03 03:10:51;;;;;;;3.05;1.30;;;1.30;85.90;;;;;;4946740;28;20055;-87
2021/05/03 03:13:30;;;;;;;4.50;1.88;;;1.30;86.10;;;;;;4936782;28;20075;-86
2021/05/03 03:16:07;;;;;;;4.45;1.42;;;1.20;86.40;;;;;;4960854;28;20086;-88
2021/05/03 03:18:39;;;;;;;3.03;1.60;;;1.20;86.10;;;;;;4936275;28;20070;-87
2021/05/03 03:21:17;;;;;;;7.07;1.42;;;1.20;86.40;;;;;;4939055;28;20342;-85
2021/05/03 03:23:56;;;;;;;2.92;1.40;;;1.10;86.40;;;;;;4938874;29;20350;-85
2021/05/03 03:26:24;;;;;;;2.55;1.67;;;1.00;86.70;;;;;;4921229;28;20215;-85
2021/05/03 03:28:54;;;;;;;4.43;1.10;;;1.00;86.70;;;;;;4942768;28;20113;-86
2021/05/03 03:31:30;;;;;;;2.00;1.05;;;0.90;86.80;;;;;;4941407;28;20348;-86
2021/05/03 03:34:06;;;;;;;2.83;1.33;;;1.00;86.70;;;;;;4954255;28;20082;-85
2021/05/03 03:36:41;;;;;;;3.30;1.20;;;0.90;86.60;;;;;;4958453;28;20803;-85
2021/05/03 03:39:17;;;;;;;6.53;1.65;;;0.80;86.80;;;;;;4953784;28;20152;-85
2021/05/03 03:41:54;;;;;;;0.90;0.60;;;0.80;86.90;;;;;;4955205;28;20068;-85
2021/05/03 03:44:24;;;;;;;4.00;1.63;;;0.80;86.90;;;;;;4941511;28;20064;-86
2021/05/03 03:46:54;;;;;;;2.55;1.17;;;0.80;86.80;;;;;;4951648;28;20051;-85
2021/05/03 03:49:32;;;;;;;8.50;1.50;;;0.80;87.00;;;;;;4950483;28;20127;-86
2021/05/03 03:52:04;;;;;;;1.65;0.75;;;0.80;86.50;;;;;;4942586;29;20047;-83
2021/05/03 03:54:44;;;;;;;1.75;1.10;;;0.90;86.40;;;;;;4947479;28;20683;-86
2021/05/03 03:57:12;;;;;;;4.78;1.42;;;0.90;86.60;;;;;;4951691;28;20047;-86
2021/05/03 03:59:54;;;;;;;1.52;0.93;;;0.90;86.30;;;;;;4953795;28;20228;-85
2021/05/03 04:02:21;;;;;;;5.82;1.85;;;0.90;86.30;;;;;;4934233;28;20047;-85
2021/05/03 04:05:08;;;;;;;4.10;2.30;;;0.90;86.40;;;;;;4952500;28;20188;-85
2021/05/03 04:07:39;;;;;;;3.17;1.90;;;0.90;86.40;;;;;;4951965;29;20361;-85
2021/05/03 04:10:16;;;;;;;2.90;1.35;;;0.80;86.50;;;;;;4957177;28;20047;-85
2021/05/03 04:12:55;;;;;;;3.45;1.60;;;0.90;86.70;;;;;;4951029;28;20059;-86
2021/05/03 04:21:14;;;;;;;5.50;1.85;;;0.70;87.30;;;;;;4944646;29;20152;-86
2021/05/03 04:24:09;;;;;;;2.85;1.30;;;0.80;87.20;;;;;;4961091;28;20278;-85
2021/05/03 04:26:36;;;;;;;3.50;1.40;;;0.70;87.20;;;;;;4949390;28;20347;-85
2021/05/03 04:29:12;;;;;;;5.80;1.90;;;0.70;87.00;;;;;;4949580;28;20071;-84
2021/05/03 04:31:41;;;;;;;2.65;1.08;;;0.70;87.00;;;;;;4947761;28;20099;-84
2021/05/03 04:34:15;;;;;;;1.52;0.95;;;0.70;86.80;;;;;;4942923;28;20050;-85
2021/05/03 04:36:47;;;;;;;2.15;1.00;;;0.70;86.80;;;;;;4951920;28;20059;-84
2021/05/03 04:39:30;;;;;;;2.22;1.23;;;0.70;86.80;;;;;;4945479;28;20051;-85
2021/05/03 04:41:58;;;;;;;2.88;1.23;;;0.70;86.80;;;;;;4949515;28;20052;-84
2021/05/03 04:44:33;;;;;;;2.20;0.98;;;0.80;86.70;;;;;;4946642;28;20324;-84
2021/05/03 04:47:03;;;;;;;2.80;1.10;;;0.90;86.60;;;;;;4940962;28;20082;-84
2021/05/03 04:49:40;;;;;;;3.92;1.42;;;1.00;86.30;;;;;;4939891;28;20506;-85
2021/05/03 04:52:14;;;;;;;2.47;1.00;;;1.00;86.10;;;;;;4943037;28;20057;-84
2021/05/03 04:54:47;;;;;;;1.92;1.10;;;1.00;86.00;;;;;;4941317;29;20131;-84
2021/05/03 04:57:25;;;;;;;1.10;0.73;;;0.90;86.20;;;;;;4938030;28;20217;-84
2021/05/03 04:59:58;;;;;;;4.60;2.10;;;1.00;86.60;;;;;;4933591;29;20047;-84
2021/05/03 05:02:33;;;;;;;2.28;1.08;;;1.00;86.40;;;;;;4956163;28;20062;-86
2021/05/03 05:05:11;;;;;;;4.93;1.30;;;1.20;86.30;;;;;;4947142;28;20386;-85
2021/05/03 05:07:39;;;;;;;4.70;2.28;;;1.30;85.60;;;;;;4933670;29;20095;-85
2021/05/03 05:10:11;;;;;;;4.65;2.50;;;1.30;85.70;;;;;;4932877;28;20031;-86
2021/05/03 05:12:50;;;;;;;3.55;2.03;;;1.30;85.70;;;;;;4934962;29;20051;-85
2021/05/03 05:15:19;;;;;;;2.60;1.63;;;1.40;85.40;;;;;;4940297;28;20067;-84
2021/05/03 05:18:02;;;;;;;4.32;2.53;;;1.50;85.50;;;;;;4936152;29;20103;-85
2021/05/03 05:20:33;;;;;;;8.30;1.98;;;1.50;85.40;;;;;;4947359;28;20068;-86
2021/05/03 05:23:06;;;;;;;3.65;1.83;;;1.50;85.30;;;;;;4949843;28;20055;-87
2021/05/03 05:25:36;;;;;;;5.32;1.92;;;1.60;85.30;;;;;;4921826;29;20075;-87
2021/05/03 05:28:04;;;;;;;3.83;1.83;;;1.60;85.20;;;;;;4919411;28;20055;-86
2021/05/03 05:30:47;;;;;;;3.38;1.65;;;1.70;85.20;;;;;;4943506;28;20055;-87
2021/05/03 05:33:23;;;;;;;3.17;2.00;;;1.70;84.80;;;;;;4942818;28;20054;-87
2021/05/03 05:35:53;;;;;;;4.55;1.75;;;1.80;84.80;;;;;;4937964;29;20279;-85
2021/05/03 05:38:22;;;;;;;7.53;2.38;;;1.90;84.80;;;;;;4943195;28;20059;-87
2021/05/03 05:40:53;;;;;;;6.07;2.40;;;1.90;84.60;;;;;;4943550;28;20095;-85
2021/05/03 05:43:20;;;;;;;4.72;2.33;;;2.00;84.30;;;;;;4941930;28;20079;-84
2021/05/03 05:45:48;;;;;;;3.15;2.10;;;2.10;84.40;;;;;;4945904;28;20343;-85
2021/05/03 05:48:17;;;;;;;3.30;1.73;;;2.20;84.30;;;;;;4950704;28;20054;-84
2021/05/03 05:50:48;;;;;;;5.32;2.60;;;2.20;84.20;;;;;;4949743;28;20067;-84
2021/05/03 05:53:20;;;;;;;6.18;2.53;;;2.30;83.90;;;;;;4940787;28;20128;-84
2021/05/03 05:55:47;;;;;;;6.07;2.47;;;2.30;83.90;;;;;;4961169;28;20059;-85
2021/05/03 05:58:14;;;;;;;7.43;2.65;;;2.40;83.20;;;;;;4948687;28;20216;-84
2021/05/03 06:00:41;;;;;;;5.38;2.30;;;2.50;83.00;;;;;;4947726;28;20043;-84
2021/05/03 06:03:09;;;;;;;3.72;2.60;;;2.60;82.90;;;;;;4950846;28;20365;-84
2021/05/03 06:05:45;;;;;;;3.28;1.95;;;2.70;82.60;;;;;;4937636;29;20052;-84
2021/05/03 06:08:16;;;;;;;4.03;2.42;;;2.70;82.20;;;;;;4964220;28;20047;-84
2021/05/03 06:10:53;;;;;;;4.53;2.58;;;2.70;82.50;;;;;;4950570;28;20057;-84
2021/05/03 06:13:25;;;;;;;5.72;2.88;;;2.80;82.30;;;;;;4948838;28;20071;-84
2021/05/03 06:16:01;;;;;;;6.72;2.72;;;2.90;82.10;;;;;;4941184;29;20039;-85
2021/05/03 06:18:35;;;;;;;4.88;3.05;;;3.00;82.10;;;;;;4952069;28;20482;-85
2021/05/03 06:21:10;;;;;;;4.45;2.75;;;3.20;81.60;;;;;;4948352;28;20056;-84
2021/05/03 06:23:44;;;;;;;4.38;2.17;;;3.30;81.30;;;;;;4940012;29;20051;-85
2021/05/03 06:26:16;;;;;;;6.97;2.78;;;3.40;81.40;;;;;;4941698;28;20051;-84
2021/05/03 06:28:52;;;;;;;6.28;2.30;;;3.50;81.00;;;;;;4927358;29;20047;-85
2021/05/03 06:31:27;;;;;;;4.40;2.08;;;3.70;80.50;;;;;;4956912;28;20058;-85
2021/05/03 06:34:00;;;;;;;4.93;2.22;;;3.70;79.90;;;;;;4937556;29;20140;-85
2021/05/03 06:36:33;;;;;;;5.25;2.47;;;3.90;79.70;;;;;;4924187;29;20059;-84
2021/05/03 06:39:08;;;;;;;4.10;2.45;;;4.00;79.80;;;;;;4965887;28;20078;-88
2021/05/03 06:41:41;;;;;;;6.25;2.65;;;4.10;78.50;;;;;;4942182;29;20055;-84
2021/05/03 06:44:13;;;;;;;6.03;3.22;;;4.20;78.20;;;;;;4927514;28;20057;-85
2021/05/03 06:46:54;;;;;;;5.97;3.22;;;4.30;77.80;;;;;;4962419;28;20067;-85
2021/05/03 06:49:33;;;;;;;3.95;2.03;;;4.40;77.10;;;;;;4944067;28;20043;-85
2021/05/03 06:52:00;;;;;;;9.00;2.70;;;4.60;77.00;;;;;;4931071;29;20311;-87
2021/05/03 06:54:35;;;;;;;5.40;2.70;;;4.70;76.60;;;;;;4934485;29;20062;-85
2021/05/03 06:57:09;;;;;;;4.60;2.28;;;4.90;76.20;;;;;;4944756;28;20052;-83
2021/05/03 06:59:54;;;;;;;6.20;2.97;;;5.00;75.60;;;;;;4962157;28;20114;-84
2021/05/03 07:02:22;;;;;;;5.10;2.42;;;5.20;75.20;;;;;;4954011;28;20063;-84
2021/05/03 07:04:52;;;;;;;5.07;2.53;;;5.20;75.10;;;;;;4942940;29;20143;-85
2021/05/03 07:07:27;;;;;;;4.72;2.25;;;5.40;74.70;;;;;;4942799;28;20047;-85
2021/05/03 07:10:04;;;;;;;4.78;2.13;;;5.50;74.60;;;;;;4946420;29;20051;-85
2021/05/03 07:12:36;;;;;;;6.30;2.33;;;5.70;74.40;;;;;;4936954;29;20051;-84
2021/05/03 07:15:11;;;;;;;5.45;2.53;;;5.90;74.70;;;;;;4941242;28;20415;-85
2021/05/03 07:17:42;;;;;;;4.10;2.38;;;6.10;74.00;;;;;;4956931;28;20224;-84
2021/05/03 07:20:20;;;;;;;8.73;3.22;;;6.20;72.50;;;;;;4943600;28;20060;-85
2021/05/03 07:22:53;;;;;;;4.85;2.67;;;6.40;71.20;;;;;;4941403;29;20069;-85
2021/05/03 07:25:22;;;;;;;6.05;3.00;;;6.70;70.70;;;;;;4956938;28;20056;-85
2021/05/03 07:27:56;;;;;;;4.03;2.28;;;6.80;71.00;;;;;;4954334;28;20107;-83
2021/05/03 07:30:34;;;;;;;8.60;2.97;;;7.00;69.10;;;;;;4951749;28;20054;-86
2021/05/03 07:33:23;;;;;;;5.55;3.13;;;7.10;68.10;;;;;;4931026;28;20048;-85
2021/05/03 07:35:51;;;;;;;5.47;2.80;;;7.30;67.80;;;;;;4945825;29;20055;-88
2021/05/03 07:38:23;;;;;;;4.18;2.38;;;7.50;67.10;;;;;;4954119;28;20234;-85
2021/05/03 07:40:57;;;;;;;5.82;2.80;;;7.40;66.30;;;;;;4946202;29;20059;-85
2021/05/03 07:43:29;;;;;;;4.75;2.35;;;7.60;66.10;;;;;;4947084;28;20288;-87
2021/05/03 07:45:56;;;;;;;6.63;2.05;;;7.70;65.20;;;;;;4950346;28;20330;-86
2021/05/03 07:48:23;;;;;;;5.05;2.38;;;7.80;64.70;;;;;;4946010;29;20056;-85
2021/05/03 07:50:52;;;;;;;3.65;2.05;;;7.90;64.50;;;;;;4946121;28;20051;-82
2021/05/03 07:53:19;;;;;;;4.80;2.78;;;8.10;63.70;;;;;;4946965;28;20051;-86
2021/05/03 07:55:53;;;;;;;6.85;2.60;;;8.20;63.90;;;;;;4949818;28;20059;-85
2021/05/03 07:58:24;;;;;;;8.15;3.10;;;8.40;62.80;;;;;;4961166;28;20047;-83
2021/05/03 08:00:58;;;;;;;5.50;2.22;;;8.50;61.70;;;;;;4943447;29;20059;-87
2021/05/03 08:03:31;;;;;;;5.85;2.78;;;8.60;61.20;;;;;;4952393;28;21064;-86
2021/05/03 08:06:13;;;;;;;4.43;2.28;;;8.70;59.60;;;;;;4947013;28;20375;-86
2021/05/03 08:08:45;;;;;;;5.22;2.88;;;8.90;59.30;;;;;;4947649;29;20145;-85
2021/05/03 08:11:16;;;;;;;5.63;2.03;;;9.00;58.30;;;;;;4953672;28;20132;-87
2021/05/03 08:13:52;;;;;;;5.85;2.35;;;9.20;58.10;;;;;;4948440;28;20063;-84
2021/05/03 08:16:27;;;;;;;4.78;2.35;;;9.20;56.40;;;;;;4926190;28;20051;-83
2021/05/03 08:18:57;;;;;;;6.10;3.20;;;9.40;55.40;;;;;;4941527;29;20106;-83
2021/05/03 08:21:33;;;;;;;6.20;2.00;;;9.40;56.10;;;;;;4945376;28;20051;-86
2021/05/03 08:24:05;;;;;;;6.50;2.55;;;9.50;55.00;;;;;;4952421;28;20107;-85
2021/05/03 08:26:42;;;;;;;4.97;2.35;;;9.60;53.60;;;;;;4949088;28;20336;-87
2021/05/03 08:29:20;;;;;;;5.38;2.20;;;9.60;51.90;;;;;;4953759;28;23533;-85
2021/05/03 08:31:51;;;;;;;4.53;2.00;;;9.70;52.10;;;;;;4923563;29;20047;-84
2021/05/03 08:34:26;;;;;;;6.10;2.10;;;9.90;50.80;;;;;;4947808;28;20074;-85
2021/05/03 08:37:00;;;;;;;5.32;2.00;;;10.00;50.60;;;;;;4961315;28;20052;-87
2021/05/03 08:39:38;;;;;;;3.65;1.58;;;10.00;49.70;;;;;;4942011;28;20303;-84
2021/05/03 08:42:09;;;;;;;9.55;2.00;;;10.10;49.50;;;;;;4952820;28;20039;-87
2021/05/03 08:44:46;;;;;;;;;;;10.10;47.80;;;;;;4946095;29;20074;-87
2021/05/03 08:47:16;;;;;;;3.58;1.60;;;10.20;47.40;;;;;;4939963;28;19926;-85
2021/05/03 08:49:53;;;;;;;3.37;1.67;;;10.30;48.00;;;;;;4953814;28;20050;-86
2021/05/03 08:52:28;;;;;;;2.78;1.50;;;10.30;46.70;;;;;;4966445;28;20299;-84
2021/05/03 08:55:01;;;;;;;3.97;1.73;;;10.60;46.60;;;;;;4949083;28;20071;-86
2021/05/03 08:57:38;;;;;;;4.03;2.08;;;10.90;46.80;;;;;;4956590;28;20461;-84
2021/05/03 09:00:13;;;;;;;6.55;1.83;;;11.20;45.50;;;;;;4931712;28;20051;-86
2021/05/03 09:02:45;;;;;;;6.63;2.08;;;11.00;45.00;;;;;;4950757;28;20250;-85
2021/05/03 09:05:20;;;;;;;2.88;1.60;;;11.10;44.10;;;;;;4965688;28;20044;-86
2021/05/03 09:07:52;;;;;;;4.10;1.70;;;11.50;44.40;;;;;;4955423;28;20066;-86
2021/05/03 09:10:28;;;;;;;3.47;1.50;;;11.60;43.60;;;;;;4950222;28;20067;-82
2021/05/03 09:13:08;;;;;;;2.70;1.42;;;11.70;43.00;;;;;;4949528;28;20055;-86
2021/05/03 09:15:39;;;;;;;5.47;1.42;;;11.50;41.30;;;;;;4944112;28;21669;-86
2021/05/03 09:18:15;;;;;;;2.75;1.30;;;11.60;41.60;;;;;;4939892;28;20048;-86
2021/05/03 09:20:49;;;;;;;3.45;1.20;;;11.70;41.60;;;;;;4951991;28;20071;-86
2021/05/03 09:23:25;;;;;;;2.90;1.23;;;11.70;40.10;;;;;;4944661;28;20050;-88
2021/05/03 09:25:59;;;;;;;2.28;1.20;;;11.50;41.00;;;;;;4962099;28;20115;-88
2021/05/03 09:28:32;;;;;;;2.55;1.08;;;11.50;40.20;;;;;;4952327;28;20730;-84
2021/05/03 09:31:05;;;;;;;4.32;1.60;;;11.60;40.80;;;;;;4946902;29;20123;-86
2021/05/03 09:33:41;;;;;;;3.60;1.67;;;11.60;40.20;;;;;;4954010;28;20366;-83
2021/05/03 09:36:22;;;;;;;4.38;1.27;;;12.00;40.60;;;;;;4956293;28;20063;-85
2021/05/03 09:38:57;;;;;;;2.88;1.38;;;12.10;39.40;;;;;;4938150;29;20341;-83
2021/05/03 09:41:31;;;;;;;3.95;1.50;;;12.00;38.40;;;;;;4946877;29;20067;-84
2021/05/03 09:44:09;;;;;;;1.60;1.02;;;12.10;38.40;;;;;;4953082;28;20055;-87
2021/05/03 09:46:42;;;;;;;3.53;1.17;;;12.30;38.10;;;;;;4971000;28;20137;-87
2021/05/03 09:49:12;;;;;;;4.63;1.60;;;12.30;37.20;;;;;;4949250;28;20054;-85
2021/05/03 09:52:04;;;;;;;;;;;12.30;37.30;;;;;;4971663;28;20383;-86
2021/05/03 09:54:34;;;;;;;2.30;1.00;;;12.20;36.60;;;;;;4953771;29;20312;-87
2021/05/03 09:57:09;;;;;;;4.05;1.33;;;12.40;36.80;;;;;;4957284;28;20055;-86
2021/05/03 09:59:45;;;;;;;6.20;3.47;;;12.70;37.00;;;;;;4948596;29;20055;-84
2021/05/03 10:02:21;;;;;;;2.95;1.40;;;12.80;37.10;;;;;;4949427;28;20083;-85
2021/05/03 10:04:56;;;;;;;3.13;1.55;;;13.20;37.10;;;;;;4942443;29;20090;-84
2021/05/03 10:07:35;;;;;;;4.18;1.75;;;13.70;36.50;;;;;;4952056;28;20832;-87
2021/05/03 10:10:16;;;;;;;3.50;1.70;;;14.10;35.80;;;;;;4961360;28;20204;-88
2021/05/03 10:12:50;;;;;;;4.68;1.80;;;14.70;34.90;;;;;;4956594;28;20055;-85
2021/05/03 10:15:20;;;;;;;4.88;1.60;;;15.50;33.80;;;;;;4958524;28;20062;-87
2021/05/03 10:18:10;;;;;;;6.05;2.00;;;16.20;33.80;;;;;;4951178;29;20056;-84
2021/05/03 10:20:40;;;;;;;5.18;1.80;;;16.50;32.30;;;;;;4945690;29;20070;-84
2021/05/03 10:23:14;;;;;;;4.18;1.80;;;17.00;31.60;;;;;;4952939;28;20052;-84
2021/05/03 10:25:54;;;;;;;2.97;1.52;;;18.00;30.50;;;;;;4940980;29;20062;-86
2021/05/03 10:28:31;;;;;;;3.63;1.73;;;18.10;30.20;;;;;;4955808;28;20099;-87
2021/05/03 10:31:06;;;;;;;3.20;1.75;;;17.80;27.80;;;;;;4946351;29;20047;-84
2021/05/03 10:33:45;;;;;;;3.08;1.17;;;18.20;28.50;;;;;;4958450;28;20302;-86
2021/05/03 10:36:32;;;;;;;2.42;1.20;;;19.20;25.70;;;;;;4955341;28;20047;-87
2021/05/03 10:39:01;;;;;;;3.03;1.27;;;18.00;28.20;;;;;;4956332;28;20063;-85
2021/05/03 10:41:35;;;;;;;4.18;1.90;;;17.60;28.00;;;;;;4939791;29;20039;-84
2021/05/03 10:44:24;;;;;;;3.35;1.63;;;17.40;29.10;;;;;;4958289;28;20122;-84
2021/05/03 10:46:57;;;;;;;4.45;1.70;;;18.10;28.80;;;;;;4954334;29;20055;-86
2021/05/03 10:53:40;;;;;;;2.55;1.13;;;19.10;26.30;;;;;;4954467;28;20055;-87
2021/05/03 10:56:11;;;;;;;3.40;1.50;;;20.70;24.70;;;;;;4954987;28;20066;-87
2021/05/03 10:59:11;;;;;;;2.80;1.30;;;20.10;24.40;;;;;;4957197;28;20066;-87
2021/05/03 11:02:07;;;;;;;5.05;1.27;;;18.70;26.00;;;;;;4933219;29;21654;-87
2021/05/03 11:04:38;;;;;;;1.92;1.02;;;20.70;22.50;;;;;;4953081;28;21085;-86
2021/05/03 11:07:14;;;;;;;3.13;0.98;;;21.40;22.80;;;;;;4947417;29;20315;-86
2021/05/03 11:09:43;;;;;;;3.67;0.90;;;20.50;23.00;;;;;;4945114;28;20048;-85
2021/05/03 11:12:31;;;;;;;1.92;0.95;;;20.20;24.10;;;;;;4959284;28;20047;-85
2021/05/03 11:15:19;;;;;;;2.42;1.40;;;20.70;22.40;;;;;;4932719;29;20051;-85
2021/05/03 11:18:25;;;;;;;1.85;0.85;;;21.90;21.80;;;;;;4920853;29;20052;-87
2021/05/03 11:24:14;;;;;;;3.47;1.20;;;20.30;22.70;;;;;;4950393;28;20606;-87
2021/05/03 11:26:48;;;;;;;3.85;1.52;;;21.40;22.10;;;;;;4939646;29;20042;-87
2021/05/03 11:29:20;;;;;;;1.75;0.85;;;18.90;23.10;;;;;;4941111;28;20047;-88
2021/05/03 11:31:50;;;;;;;2.50;0.82;;;18.20;24.30;;;;;;4969824;28;20061;-87
2021/05/03 11:34:32;;;;;;;5.55;2.17;;;18.60;23.80;;;;;;4955343;28;20051;-87
2021/05/03 11:37:05;;;;;;;2.72;1.17;;;19.50;23.00;;;;;;4944223;29;20223;-84
2021/05/03 11:39:50;;;;;;;2.88;1.00;;;21.50;21.10;;;;;;4965493;28;20254;-86
2021/05/03 11:45:25;;;;;;;2.97;1.58;;;21.00;22.30;;;;;;4966117;28;20043;-87
2021/05/03 11:48:00;;;;;;;2.67;1.13;;;22.60;19.90;;;;;;4956893;28;20062;-87
2021/05/03 11:50:35;;;;;;;3.88;1.20;;;23.90;18.70;;;;;;4924513;29;20054;-87
2021/05/03 11:53:39;;;;;;;2.65;1.17;;;23.80;18.70;;;;;;4951354;28;20051;-87
2021/05/03 11:56:19;;;;;;;2.10;1.10;;;22.60;19.70;;;;;;4948387;28;20086;-87
2021/05/03 11:58:50;;;;;;;7.40;1.55;;;22.40;19.20;;;;;;4929261;29;20074;-86
2021/05/03 12:01:20;;;;;;;2.42;1.23;;;22.90;19.30;;;;;;4931994;29;20051;-85
2021/05/03 12:03:52;;;;;;;7.05;1.50;;;22.40;19.20;;;;;;4937613;29;20044;-86
2021/05/03 12:06:44;;;;;;;2.42;1.10;;;22.80;20.10;;;;;;4948701;28;20268;-82
2021/05/03 12:09:19;;;;;;;2.85;1.30;;;22.70;19.50;;;;;;4945492;28;20055;-86
2021/05/03 12:11:59;;;;;;;3.20;1.48;;;23.30;18.80;;;;;;4949241;28;20048;-84
2021/05/03 12:14:43;;;;;;;3.17;1.60;;;22.80;19.60;;;;;;4951361;28;20109;-85
2021/05/03 12:17:15;;;;;;;2.97;1.60;;;22.80;19.40;;;;;;4951803;28;20059;-85
2021/05/03 12:19:50;;;;;;;4.65;1.60;;;22.60;19.50;;;;;;4949607;28;20167;-84
2021/05/03 12:22:25;;;;;;;3.42;1.42;;;23.90;18.40;;;;;;4953353;28;20050;-87
2021/05/03 12:25:01;;;;;;;2.80;1.20;;;22.60;18.50;;;;;;4954144;28;20043;-85
2021/05/03 12:27:34;;;;;;;3.08;1.40;;;22.20;18.90;;;;;;4964883;28;21097;-83
2021/05/03 12:30:08;;;;;;;2.90;1.27;;;21.90;18.90;;;;;;4948789;28;20071;-84
2021/05/03 12:32:45;;;;;;;2.53;1.13;;;21.90;18.40;;;;;;4948933;29;20048;-82
2021/05/03 12:35:21;;;;;;;4.22;1.60;;;22.50;18.30;;;;;;4938858;28;20075;-86
2021/05/03 12:38:02;;;;;;;1.90;1.00;;;23.50;18.10;;;;;;4948420;29;20232;-84
2021/05/03 12:40:37;;;;;;;3.72;1.30;;;22.50;18.10;;;;;;4944548;29;20054;-85
2021/05/03 12:43:07;;;;;;;3.25;1.48;;;22.70;18.90;;;;;;4940371;28;20089;-85
2021/05/03 12:45:43;;;;;;;5.18;1.67;;;22.80;19.00;;;;;;4949939;29;20123;-85
2021/05/03 12:48:30;;;;;;;4.47;1.50;;;22.00;19.70;;;;;;4926970;28;20083;-86
2021/05/03 12:51:30;;;;;;;4.90;1.60;;;21.80;19.40;;;;;;4967038;28;20054;-86
2021/05/03 12:54:13;;;;;;;5.68;1.70;;;21.70;19.40;;;;;;4938781;29;20063;-85
2021/05/03 12:57:02;;;;;;;2.60;1.30;;;22.90;18.80;;;;;;4944721;29;20374;-86
2021/05/03 12:59:47;;;;;;;2.72;1.40;;;23.20;17.00;;;;;;4947439;28;20578;-85
2021/05/03 13:02:23;;;;;;;4.53;1.40;;;20.40;20.10;;;;;;4938607;28;20215;-86
2021/05/03 13:04:53;;;;;;;4.45;1.35;;;19.60;21.60;;;;;;4951653;28;20082;-85
2021/05/03 13:10:50;;;;;;;4.60;1.25;;;17.50;24.50;;;;;;4948940;28;20102;-86
2021/05/03 13:30:28;;;;;;;6.20;1.42;;;17.90;24.40;;;;;;4939309;28;20338;-86
2021/05/03 13:33:05;;;;;;;4.47;1.50;;;17.90;23.80;;;;;;4935845;29;20062;-86
2021/05/03 13:35:38;;;;;;;3.28;1.50;;;16.80;25.20;;;;;;4949029;29;20308;-85
2021/05/03 13:38:16;;;;;;;3.25;1.30;;;16.60;25.90;;;;;;4940676;28;20186;-86
2021/05/03 13:40:48;;;;;;;6.10;1.48;;;17.20;25.40;;;;;;4962207;28;23723;-87
2021/05/03 13:43:24;;;;;;;4.65;1.48;;;17.70;25.20;;;;;;4922296;28;20059;-85
2021/05/03 13:45:59;;;;;;;3.63;1.60;;;17.30;26.10;;;;;;4950929;28;20051;-86
2021/05/03 13:48:43;;;;;;;4.32;1.60;;;17.50;26.20;;;;;;4944530;28;20043;-87
2021/05/03 13:51:33;;;;;;;4.88;1.55;;;18.30;24.80;;;;;;4941455;29;20335;-85
2021/05/03 13:54:08;;;;;;;4.00;1.67;;;17.50;26.20;;;;;;4950056;28;20043;-89
2021/05/03 13:56:57;;;;;;;3.90;1.55;;;17.10;27.10;;;;;;4927189;29;20039;-84
2021/05/03 13:59:28;;;;;;;3.95;1.60;;;18.20;25.80;;;;;;4953388;28;20433;-85
2021/05/03 14:02:05;;;;;;;;;;;19.70;24.20;;;;;;4943136;28;20095;-85
2021/05/03 14:04:42;;;;;;;4.55;1.55;;;21.30;22.10;;;;;;4936619;29;20199;-88
2021/05/03 14:07:13;;;;;;;5.10;1.80;;;21.10;22.20;;;;;;4952975;28;20048;-86